Terminal Aerodrome Forecast
Issued by NWS Goodland, KS

Home | Current Version | Previous Version | Text Only | Print | Product List | Glossary On
Versions: 1 2 3 4 5 6 7 8 9 10 11 12 13 14 15 16 17 18 19 20 21 22 23 24 25
000
FTUS43 KGLD 181554 AAB
TAFGLD
TAF AMD
KGLD 181554Z 1816/1912 11007KT P6SM BKN007
     FM181700 11008KT P6SM BKN015
     FM182000 14009KT P6SM VCTS BKN035CB
     FM190200 33010KT 6SM -SHRA BR SCT050 BKN120
     FM190700 34012G20KT P6SM SCT100=

USA.gov is the U.S. government's official web portal to all federal, state and local government web resources and services.